createdAt,value
2023-05-22T00:03:05.128Z,43.99
2023-05-22T00:08:29.537Z,43.99
2023-05-22T00:13:52.014Z,43.96
2023-05-22T00:19:17.063Z,43.87
2023-05-22T00:24:39.020Z,43.86
2023-05-22T00:30:01.565Z,43.64
2023-05-22T00:35:23.831Z,43.74
2023-05-22T00:40:45.879Z,43.80
2023-05-22T00:46:08.164Z,43.36
2023-05-22T00:51:30.215Z,43.71
2023-05-22T00:56:52.332Z,43.56
2023-05-22T01:02:16.694Z,43.75
2023-05-22T01:07:38.829Z,43.22
2023-05-22T01:13:12.487Z,43.68
2023-05-22T01:19:03.030Z,43.50
2023-05-22T01:24:53.421Z,43.40
2023-05-22T01:30:37.498Z,43.45
2023-05-22T01:36:02.553Z,43.46
2023-05-22T01:41:24.666Z,43.22
2023-05-22T01:46:46.570Z,43.38
2023-05-22T01:52:20.138Z,43.37
2023-05-22T01:58:03.196Z,43.63
2023-05-22T02:03:30.239Z,43.15
2023-05-22T02:08:53.674Z,43.52
2023-05-22T02:14:16.402Z,43.14
2023-05-22T02:19:38.367Z,43.32
2023-05-22T02:25:00.384Z,43.43
2023-05-22T02:30:22.277Z,42.99
2023-05-22T02:35:45.076Z,43.02
2023-05-22T02:41:08.214Z,43.44
2023-05-22T02:46:30.158Z,43.16
2023-05-22T02:51:52.068Z,43.38
2023-05-22T02:57:13.908Z,43.20
2023-05-22T03:02:36.833Z,43.42
2023-05-22T03:07:59.194Z,43.16
2023-05-22T03:13:21.120Z,43.18
2023-05-22T03:18:42.977Z,42.96
2023-05-22T03:24:05.676Z,43.10
2023-05-22T03:29:27.503Z,42.80
2023-05-22T03:34:49.296Z,43.12
2023-05-22T03:40:11.388Z,43.09
2023-05-22T03:45:33.266Z,42.92
2023-05-22T03:50:55.278Z,43.09
2023-05-22T03:56:17.262Z,43.27
2023-05-22T04:01:39.486Z,42.83
2023-05-22T04:07:02.910Z,43.07
2023-05-22T04:12:24.765Z,43.34
2023-05-22T04:17:48.121Z,42.98
2023-05-22T04:23:10.256Z,42.86
2023-05-22T04:28:32.308Z,42.87
2023-05-22T04:33:55.059Z,43.24
2023-05-22T04:39:17.423Z,43.03
2023-05-22T04:44:39.203Z,43.02
2023-05-22T04:50:02.738Z,42.75
2023-05-22T04:55:25.243Z,42.86
2023-05-22T05:00:47.149Z,43.06
2023-05-22T05:06:09.037Z,42.81
2023-05-22T05:11:31.520Z,42.91
2023-05-22T05:16:53.592Z,43.22
2023-05-22T05:22:15.643Z,43.37
2023-05-22T05:27:37.653Z,43.58
2023-05-22T05:32:59.541Z,43.37
2023-05-22T05:38:21.511Z,43.97
2023-05-22T05:43:43.382Z,44.13
2023-05-22T05:49:12.263Z,43.98
2023-05-22T05:54:34.152Z,44.24
2023-05-22T05:59:56.052Z,44.31
2023-05-22T06:05:19.541Z,44.14
2023-05-22T06:10:41.749Z,44.01
2023-05-22T06:16:05.839Z,43.90
2023-05-22T06:21:28.589Z,44.33
2023-05-22T06:26:50.491Z,43.94
2023-05-22T06:32:12.333Z,43.87
2023-05-22T06:37:36.037Z,44.26
2023-05-22T06:42:59.278Z,43.99
2023-05-22T06:48:21.160Z,44.06
2023-05-22T06:53:43.388Z,44.01
2023-05-22T06:59:06.320Z,44.13
2023-05-22T07:04:28.282Z,44.16
2023-05-22T07:09:50.184Z,43.88
2023-05-22T07:15:14.839Z,44.12
2023-05-22T07:20:39.880Z,44.25
2023-05-22T07:26:01.855Z,43.72
2023-05-22T07:31:23.725Z,43.91
2023-05-22T07:36:45.691Z,44.19
2023-05-22T07:42:08.011Z,43.75
2023-05-22T07:47:29.893Z,44.13
2023-05-22T07:52:52.012Z,44.00
2023-05-22T07:58:14.089Z,44.18
2023-05-22T08:03:36.232Z,43.76
2023-05-22T08:08:58.352Z,44.17
2023-05-22T08:14:22.233Z,44.21
2023-05-22T08:19:44.148Z,44.12
2023-05-22T08:25:06.782Z,44.34
2023-05-22T08:30:29.040Z,44.19
2023-05-22T08:35:51.387Z,43.83
2023-05-22T08:41:14.144Z,43.92
2023-05-22T08:46:38.515Z,44.01
2023-05-22T08:52:12.954Z,44.06
2023-05-22T08:57:36.248Z,44.05
2023-05-22T09:02:58.396Z,44.28
2023-05-22T09:08:21.344Z,44.02
2023-05-22T09:13:44.951Z,44.26
2023-05-22T09:19:06.927Z,43.89
2023-05-22T09:24:29.009Z,43.85
2023-05-22T09:29:52.641Z,44.17
2023-05-22T09:35:14.905Z,44.15
2023-05-22T09:40:43.409Z,44.17
2023-05-22T09:46:05.608Z,43.86
2023-05-22T09:51:28.020Z,44.12
2023-05-22T09:56:51.184Z,43.93
2023-05-22T10:02:13.852Z,43.88
2023-05-22T10:07:41.509Z,43.99
2023-05-22T10:13:06.989Z,44.14
2023-05-22T10:18:28.974Z,44.57
2023-05-22T10:23:52.605Z,44.34
2023-05-22T10:29:22.572Z,44.50
2023-05-22T10:34:56.539Z,44.24
2023-05-22T10:40:29.016Z,44.34
2023-05-22T10:46:02.704Z,44.62
2023-05-22T10:51:25.322Z,44.90
2023-05-22T10:56:47.323Z,44.88
2023-05-22T11:02:30.020Z,45.26
2023-05-22T11:07:51.986Z,45.28
2023-05-22T11:13:14.098Z,45.21
2023-05-22T11:18:36.337Z,45.39
2023-05-22T11:24:01.425Z,45.34
2023-05-22T11:29:24.283Z,45.75
2023-05-22T11:34:47.761Z,45.40
2023-05-22T11:40:11.198Z,45.54
2023-05-22T11:45:37.940Z,46.13
2023-05-22T11:50:59.964Z,45.98
2023-05-22T11:56:25.080Z,46.16
2023-05-22T12:01:50.254Z,45.90
2023-05-22T12:07:12.541Z,46.12
2023-05-22T12:12:34.545Z,46.10
2023-05-22T12:17:56.725Z,46.15
2023-05-22T12:23:25.953Z,45.93
2023-05-22T12:28:47.935Z,46.48
2023-05-22T12:34:09.945Z,46.38
2023-05-22T12:39:31.858Z,46.23
2023-05-22T12:44:54.629Z,46.40
2023-05-22T12:50:16.601Z,46.56
2023-05-22T12:55:39.339Z,46.64
2023-05-22T13:01:01.407Z,46.29
2023-05-22T13:06:23.230Z,46.34
2023-05-22T13:11:45.142Z,46.38
2023-05-22T13:17:07.180Z,46.41
2023-05-22T13:22:29.328Z,46.81
2023-05-22T13:27:51.229Z,46.93
2023-05-22T13:33:13.839Z,46.73
2023-05-22T13:38:35.658Z,47.01
2023-05-22T13:43:57.641Z,47.12
2023-05-22T13:49:19.966Z,46.85
2023-05-22T13:54:41.872Z,46.67
2023-05-22T14:00:04.349Z,46.69
2023-05-22T14:05:26.285Z,47.02
2023-05-22T14:10:48.253Z,46.82
2023-05-22T14:16:10.235Z,46.95
2023-05-22T14:21:32.133Z,46.67
2023-05-22T14:26:58.247Z,46.68
2023-05-22T14:32:20.146Z,46.52
2023-05-22T14:37:42.105Z,46.70
2023-05-22T14:43:04.026Z,46.79
2023-05-22T14:48:26.997Z,46.65
2023-05-22T14:53:49.186Z,46.96
2023-05-22T14:59:12.113Z,46.83
2023-05-22T15:04:34.099Z,46.48
2023-05-22T15:09:56.791Z,46.83
2023-05-22T15:15:18.713Z,46.73
2023-05-22T15:20:40.572Z,46.71
2023-05-22T15:26:02.628Z,46.82
2023-05-22T15:31:24.504Z,47.23
2023-05-22T15:36:46.376Z,47.32
2023-05-22T15:42:08.579Z,47.56
2023-05-22T15:47:30.476Z,48.11
2023-05-22T15:52:52.329Z,48.52
2023-05-22T15:58:14.138Z,48.44
2023-05-22T16:03:36.122Z,48.60
2023-05-22T16:08:58.245Z,48.36
2023-05-22T16:14:20.114Z,48.24
2023-05-22T16:19:41.983Z,48.13
2023-05-22T16:25:03.986Z,48.07
2023-05-22T16:30:26.075Z,47.83
2023-05-22T16:35:48.120Z,47.72
2023-05-22T16:41:10.034Z,47.55
2023-05-22T16:46:31.956Z,48.09
2023-05-22T16:51:53.819Z,47.78
2023-05-22T16:57:16.531Z,47.83
2023-05-22T17:02:38.729Z,47.83
2023-05-22T17:08:00.970Z,47.88
2023-05-22T17:13:22.944Z,48.62
2023-05-22T17:18:44.786Z,49.09
2023-05-22T17:24:06.785Z,49.51
2023-05-22T17:29:28.986Z,49.95
2023-05-22T17:34:50.935Z,50.45
2023-05-22T17:40:12.892Z,49.95
2023-05-22T17:45:35.271Z,49.82
2023-05-22T17:50:57.070Z,50.05
2023-05-22T17:56:18.967Z,50.09
2023-05-22T18:01:41.353Z,49.81
2023-05-22T18:07:03.236Z,50.26
2023-05-22T18:12:31.806Z,50.21
2023-05-22T18:17:54.219Z,50.35
2023-05-22T18:23:16.360Z,50.04
2023-05-22T18:28:38.262Z,50.27
2023-05-22T18:34:00.206Z,50.02
2023-05-22T18:39:22.178Z,50.12
2023-05-22T18:44:44.032Z,49.91
2023-05-22T18:50:06.604Z,49.93
2023-05-22T18:55:28.570Z,49.93
2023-05-22T19:00:52.336Z,49.98
2023-05-22T19:06:14.196Z,49.95
2023-05-22T19:11:36.501Z,50.24
2023-05-22T19:17:00.990Z,50.72
2023-05-22T19:22:24.450Z,50.26
2023-05-22T19:27:47.805Z,50.05
2023-05-22T19:33:10.869Z,50.13
2023-05-22T19:38:32.990Z,49.83
2023-05-22T19:43:55.479Z,49.84
2023-05-22T19:49:17.509Z,50.47
2023-05-22T19:54:40.086Z,50.37
2023-05-22T20:00:02.678Z,50.01
2023-05-22T20:05:25.282Z,50.26
2023-05-22T20:10:47.641Z,50.33
2023-05-22T20:16:12.826Z,50.07
2023-05-22T20:21:34.929Z,50.15
2023-05-22T20:26:57.188Z,49.89
2023-05-22T20:32:19.016Z,50.72
2023-05-22T20:37:42.000Z,49.86
2023-05-22T20:43:03.942Z,49.98
2023-05-22T20:48:25.849Z,49.76
2023-05-22T20:53:52.721Z,49.71
2023-05-22T20:59:14.845Z,49.78
2023-05-22T21:04:37.266Z,49.52
2023-05-22T21:09:59.051Z,49.39
2023-05-22T21:15:21.108Z,49.35
2023-05-22T21:20:42.990Z,49.25
2023-05-22T21:26:05.008Z,49.17
2023-05-22T21:31:27.044Z,49.08
2023-05-22T21:36:49.974Z,49.20
2023-05-22T21:42:11.926Z,49.06
2023-05-22T21:47:34.064Z,48.82
2023-05-22T21:52:56.082Z,48.72
2023-05-22T21:58:18.528Z,48.64
2023-05-22T22:03:40.583Z,48.91
2023-05-22T22:09:03.815Z,48.49
2023-05-22T22:14:25.751Z,48.65
2023-05-22T22:19:47.677Z,48.51
2023-05-22T22:25:09.844Z,48.19
2023-05-22T22:30:31.855Z,47.76
2023-05-22T22:35:54.088Z,48.11
2023-05-22T22:41:15.963Z,47.52
2023-05-22T22:46:38.193Z,47.45
2023-05-22T22:52:00.149Z,47.65
2023-05-22T22:57:21.971Z,47.53
2023-05-22T23:02:44.021Z,47.55
2023-05-22T23:08:06.149Z,47.23
2023-05-22T23:13:27.955Z,47.26
2023-05-22T23:18:49.826Z,47.08
2023-05-22T23:24:11.703Z,47.17
2023-05-22T23:29:33.563Z,47.43
2023-05-22T23:34:55.393Z,47.34
2023-05-22T23:40:17.436Z,47.28
2023-05-22T23:45:39.481Z,47.29
2023-05-22T23:51:03.040Z,47.51
2023-05-22T23:56:25.020Z,47.12
